sensor_id;sensor_type;location;lat;lon;timestamp;temperature;humidity
18317;DHT22;9284;52.298;21.164;2023-10-19T00:01:36;-0.10;1.00
18317;DHT22;9284;52.298;21.164;2023-10-19T00:04:05;-0.20;1.00
18317;DHT22;9284;52.298;21.164;2023-10-19T00:06:39;-0.20;1.00
18317;DHT22;9284;52.298;21.164;2023-10-19T00:09:15;-0.30;1.00
18317;DHT22;9284;52.298;21.164;2023-10-19T00:11:50;-0.20;1.00
18317;DHT22;9284;52.298;21.164;2023-10-19T00:14:19;-0.20;1.00
18317;DHT22;9284;52.298;21.164;2023-10-19T00:16:54;0.00;1.00
18317;DHT22;9284;52.298;21.164;2023-10-19T00:19:51;-0.20;1.00
18317;DHT22;9284;52.298;21.164;2023-10-19T00:22:50;-0.20;1.00
18317;DHT22;9284;52.298;21.164;2023-10-19T00:25:24;-0.30;1.00
18317;DHT22;9284;52.298;21.164;2023-10-19T00:28:04;-0.20;1.00
18317;DHT22;9284;52.298;21.164;2023-10-19T00:30:40;-0.50;1.00
18317;DHT22;9284;52.298;21.164;2023-10-19T00:33:11;-0.50;1.00
18317;DHT22;9284;52.298;21.164;2023-10-19T00:35:46;-0.50;1.00
18317;DHT22;9284;52.298;21.164;2023-10-19T00:38:30;-0.60;1.00
18317;DHT22;9284;52.298;21.164;2023-10-19T00:41:10;-0.50;1.00
18317;DHT22;9284;52.298;21.164;2023-10-19T00:43:51;-0.50;1.00
18317;DHT22;9284;52.298;21.164;2023-10-19T00:46:32;-0.50;1.00
18317;DHT22;9284;52.298;21.164;2023-10-19T00:49:13;-0.50;1.00
18317;DHT22;9284;52.298;21.164;2023-10-19T00:51:47;-0.50;1.00
18317;DHT22;9284;52.298;21.164;2023-10-19T00:54:34;-0.40;1.00
18317;DHT22;9284;52.298;21.164;2023-10-19T00:57:18;-0.60;1.00
18317;DHT22;9284;52.298;21.164;2023-10-19T00:59:49;-0.40;1.00
18317;DHT22;9284;52.298;21.164;2023-10-19T01:02:22;-0.50;1.00
18317;DHT22;9284;52.298;21.164;2023-10-19T01:04:57;-0.60;1.00
18317;DHT22;9284;52.298;21.164;2023-10-19T01:07:33;-0.50;1.00
18317;DHT22;9284;52.298;21.164;2023-10-19T01:10:11;-0.60;1.00
18317;DHT22;9284;52.298;21.164;2023-10-19T01:12:47;-0.50;1.00
18317;DHT22;9284;52.298;21.164;2023-10-19T01:15:18;-0.20;1.00
18317;DHT22;9284;52.298;21.164;2023-10-19T01:17:54;-0.30;49.90
18317;DHT22;9284;52.298;21.164;2023-10-19T01:20:27;0.00;71.40
18317;DHT22;9284;52.298;21.164;2023-10-19T01:23:25;-0.30;28.10
18317;DHT22;9284;52.298;21.164;2023-10-19T01:26:01;-0.10;72.70
18317;DHT22;9284;52.298;21.164;2023-10-19T01:28:37;-0.20;1.80
18317;DHT22;9284;52.298;21.164;2023-10-19T01:31:19;-0.20;1.00
18317;DHT22;9284;52.298;21.164;2023-10-19T01:34:00;-0.30;1.00
18317;DHT22;9284;52.298;21.164;2023-10-19T01:36:39;-0.30;1.00
18317;DHT22;9284;52.298;21.164;2023-10-19T01:39:23;-0.30;1.00
18317;DHT22;9284;52.298;21.164;2023-10-19T01:42:04;-0.30;1.00
18317;DHT22;9284;52.298;21.164;2023-10-19T01:44:39;-0.40;1.00
18317;DHT22;9284;52.298;21.164;2023-10-19T01:47:09;-0.30;1.00
18317;DHT22;9284;52.298;21.164;2023-10-19T01:49:39;-0.40;1.00
18317;DHT22;9284;52.298;21.164;2023-10-19T01:52:08;-0.40;1.00
18317;DHT22;9284;52.298;21.164;2023-10-19T01:54:45;-0.40;1.00
18317;DHT22;9284;52.298;21.164;2023-10-19T01:57:30;-0.50;1.00
18317;DHT22;9284;52.298;21.164;2023-10-19T02:00:00;-0.50;1.00
18317;DHT22;9284;52.298;21.164;2023-10-19T02:02:38;-0.30;1.00
18317;DHT22;9284;52.298;21.164;2023-10-19T02:05:10;-0.50;1.00
18317;DHT22;9284;52.298;21.164;2023-10-19T02:07:45;-0.60;1.00
18317;DHT22;9284;52.298;21.164;2023-10-19T02:10:20;-0.50;1.00
18317;DHT22;9284;52.298;21.164;2023-10-19T02:12:53;-0.60;1.00
18317;DHT22;9284;52.298;21.164;2023-10-19T02:15:33;-0.60;1.00
18317;DHT22;9284;52.298;21.164;2023-10-19T02:18:15;-0.70;1.00
18317;DHT22;9284;52.298;21.164;2023-10-19T02:20:44;-0.60;1.00
18317;DHT22;9284;52.298;21.164;2023-10-19T02:23:17;-0.70;29.00
18317;DHT22;9284;52.298;21.164;2023-10-19T02:25:47;-0.50;99.90
18317;DHT22;9284;52.298;21.164;2023-10-19T02:28:22;-0.50;99.90
18317;DHT22;9284;52.298;21.164;2023-10-19T02:31:03;-0.40;99.90
18317;DHT22;9284;52.298;21.164;2023-10-19T02:33:45;-0.40;99.90
18317;DHT22;9284;52.298;21.164;2023-10-19T02:36:21;-0.40;99.90
18317;DHT22;9284;52.298;21.164;2023-10-19T02:38:50;-0.50;5.80
18317;DHT22;9284;52.298;21.164;2023-10-19T02:41:26;-0.50;1.00
18317;DHT22;9284;52.298;21.164;2023-10-19T02:43:57;-0.70;1.00
18317;DHT22;9284;52.298;21.164;2023-10-19T02:46:36;-0.50;1.00
18317;DHT22;9284;52.298;21.164;2023-10-19T02:49:16;-0.60;1.00
18317;DHT22;9284;52.298;21.164;2023-10-19T02:51:50;-0.70;1.00
18317;DHT22;9284;52.298;21.164;2023-10-19T02:54:23;-0.80;1.00
18317;DHT22;9284;52.298;21.164;2023-10-19T02:56:55;-0.80;1.00
18317;DHT22;9284;52.298;21.164;2023-10-19T02:59:27;-0.80;12.40
18317;DHT22;9284;52.298;21.164;2023-10-19T03:02:06;-0.80;1.00
18317;DHT22;9284;52.298;21.164;2023-10-19T03:04:44;-0.90;12.70
18317;DHT22;9284;52.298;21.164;2023-10-19T03:07:16;-0.80;56.80
18317;DHT22;9284;52.298;21.164;2023-10-19T03:09:50;-0.80;92.00
18317;DHT22;9284;52.298;21.164;2023-10-19T03:12:28;-0.80;4.60
18317;DHT22;9284;52.298;21.164;2023-10-19T03:15:07;-0.80;20.70
18317;DHT22;9284;52.298;21.164;2023-10-19T03:17:41;-0.80;1.00
18317;DHT22;9284;52.298;21.164;2023-10-19T03:20:13;-0.70;1.00
18317;DHT22;9284;52.298;21.164;2023-10-19T03:22:58;-0.90;1.00
18317;DHT22;9284;52.298;21.164;2023-10-19T03:25:33;-0.90;1.00
18317;DHT22;9284;52.298;21.164;2023-10-19T03:28:25;-0.80;1.00
18317;DHT22;9284;52.298;21.164;2023-10-19T03:30:56;-0.90;1.00
18317;DHT22;9284;52.298;21.164;2023-10-19T03:33:30;-0.80;1.00
18317;DHT22;9284;52.298;21.164;2023-10-19T03:36:01;-0.90;1.00
18317;DHT22;9284;52.298;21.164;2023-10-19T03:38:33;-0.90;1.00
18317;DHT22;9284;52.298;21.164;2023-10-19T03:41:09;-0.90;1.00
18317;DHT22;9284;52.298;21.164;2023-10-19T03:43:40;-0.80;1.00
18317;DHT22;9284;52.298;21.164;2023-10-19T03:46:13;-0.90;3.00
18317;DHT22;9284;52.298;21.164;2023-10-19T03:48:50;-1.00;12.80
18317;DHT22;9284;52.298;21.164;2023-10-19T03:51:22;-0.70;92.00
18317;DHT22;9284;52.298;21.164;2023-10-19T03:53:54;-0.80;50.10
18317;DHT22;9284;52.298;21.164;2023-10-19T03:56:30;-0.90;47.30
18317;DHT22;9284;52.298;21.164;2023-10-19T03:59:06;-0.80;99.90
18317;DHT22;9284;52.298;21.164;2023-10-19T04:01:36;-0.80;99.90
18317;DHT22;9284;52.298;21.164;2023-10-19T04:04:06;-0.80;39.40
18317;DHT22;9284;52.298;21.164;2023-10-19T04:06:39;-0.70;14.30
18317;DHT22;9284;52.298;21.164;2023-10-19T04:09:08;-0.90;46.90
18317;DHT22;9284;52.298;21.164;2023-10-19T04:11:39;-0.80;57.00
18317;DHT22;9284;52.298;21.164;2023-10-19T04:14:18;-0.80;40.40
18317;DHT22;9284;52.298;21.164;2023-10-19T04:16:52;-0.70;59.60
18317;DHT22;9284;52.298;21.164;2023-10-19T04:19:24;-0.80;14.10
18317;DHT22;9284;52.298;21.164;2023-10-19T04:21:56;-0.80;19.80
18317;DHT22;9284;52.298;21.164;2023-10-19T04:24:25;-0.90;1.00
18317;DHT22;9284;52.298;21.164;2023-10-19T04:27:01;-0.80;90.20
18317;DHT22;9284;52.298;21.164;2023-10-19T04:29:34;-0.90;1.00
18317;DHT22;9284;52.298;21.164;2023-10-19T04:32:08;-0.80;1.00
18317;DHT22;9284;52.298;21.164;2023-10-19T04:34:49;-0.80;1.00
18317;DHT22;9284;52.298;21.164;2023-10-19T04:37:22;-0.70;18.80
18317;DHT22;9284;52.298;21.164;2023-10-19T04:39:51;-0.70;97.20
18317;DHT22;9284;52.298;21.164;2023-10-19T04:42:20;-0.80;36.60
18317;DHT22;9284;52.298;21.164;2023-10-19T04:45:10;-0.80;28.30
18317;DHT22;9284;52.298;21.164;2023-10-19T04:47:39;-0.90;82.50
18317;DHT22;9284;52.298;21.164;2023-10-19T04:50:08;-0.70;77.70
18317;DHT22;9284;52.298;21.164;2023-10-19T04:52:38;-0.80;85.60
18317;DHT22;9284;52.298;21.164;2023-10-19T04:55:17;-0.60;84.50
18317;DHT22;9284;52.298;21.164;2023-10-19T04:57:54;-0.70;99.50
18317;DHT22;9284;52.298;21.164;2023-10-19T05:00:25;-0.70;94.70
18317;DHT22;9284;52.298;21.164;2023-10-19T05:03:02;-0.60;67.60
18317;DHT22;9284;52.298;21.164;2023-10-19T05:05:34;-0.70;67.00
18317;DHT22;9284;52.298;21.164;2023-10-19T05:08:07;-0.50;39.10
18317;DHT22;9284;52.298;21.164;2023-10-19T05:10:36;-0.60;33.40
18317;DHT22;9284;52.298;21.164;2023-10-19T05:13:08;-0.70;28.90
18317;DHT22;9284;52.298;21.164;2023-10-19T05:15:42;-0.70;41.40
18317;DHT22;9284;52.298;21.164;2023-10-19T05:18:12;-0.70;60.80
18317;DHT22;9284;52.298;21.164;2023-10-19T05:20:42;-0.70;62.90
18317;DHT22;9284;52.298;21.164;2023-10-19T05:23:11;-0.60;93.00
18317;DHT22;9284;52.298;21.164;2023-10-19T05:25:42;-0.50;93.40
18317;DHT22;9284;52.298;21.164;2023-10-19T05:28:16;-0.50;89.60
18317;DHT22;9284;52.298;21.164;2023-10-19T05:30:48;-0.50;90.70
18317;DHT22;9284;52.298;21.164;2023-10-19T05:33:19;-0.20;99.90
18317;DHT22;9284;52.298;21.164;2023-10-19T05:35:52;-0.40;85.20
18317;DHT22;9284;52.298;21.164;2023-10-19T05:38:25;-0.50;99.90
18317;DHT22;9284;52.298;21.164;2023-10-19T05:40:57;-0.30;99.90
18317;DHT22;9284;52.298;21.164;2023-10-19T05:43:32;-0.10;99.90
18317;DHT22;9284;52.298;21.164;2023-10-19T05:46:08;0.00;99.90
18317;DHT22;9284;52.298;21.164;2023-10-19T05:48:42;0.00;99.90
18317;DHT22;9284;52.298;21.164;2023-10-19T05:51:14;0.10;99.90
18317;DHT22;9284;52.298;21.164;2023-10-19T05:53:44;0.20;99.90
18317;DHT22;9284;52.298;21.164;2023-10-19T05:56:35;0.30;99.90
18317;DHT22;9284;52.298;21.164;2023-10-19T05:59:06;0.50;99.90
18317;DHT22;9284;52.298;21.164;2023-10-19T06:01:57;0.50;99.90
18317;DHT22;9284;52.298;21.164;2023-10-19T06:04:28;0.70;99.90
18317;DHT22;9284;52.298;21.164;2023-10-19T06:07:04;0.70;49.60
18317;DHT22;9284;52.298;21.164;2023-10-19T06:09:35;0.80;1.00
18317;DHT22;9284;52.298;21.164;2023-10-19T06:12:25;0.80;1.00
18317;DHT22;9284;52.298;21.164;2023-10-19T06:14:54;0.90;1.00
18317;DHT22;9284;52.298;21.164;2023-10-19T06:17:28;0.90;1.00
18317;DHT22;9284;52.298;21.164;2023-10-19T06:20:11;1.10;1.00
18317;DHT22;9284;52.298;21.164;2023-10-19T06:22:52;1.20;1.00
18317;DHT22;9284;52.298;21.164;2023-10-19T06:25:24;1.30;99.90
18317;DHT22;9284;52.298;21.164;2023-10-19T06:27:53;1.50;99.90
18317;DHT22;9284;52.298;21.164;2023-10-19T06:30:25;1.60;99.90
18317;DHT22;9284;52.298;21.164;2023-10-19T06:32:59;1.80;99.90
18317;DHT22;9284;52.298;21.164;2023-10-19T06:35:33;1.90;99.90
18317;DHT22;9284;52.298;21.164;2023-10-19T06:38:06;2.00;1.00
18317;DHT22;9284;52.298;21.164;2023-10-19T06:40:49;2.20;97.70
18317;DHT22;9284;52.298;21.164;2023-10-19T06:43:30;2.40;1.00
18317;DHT22;9284;52.298;21.164;2023-10-19T06:46:36;2.60;1.00
18317;DHT22;9284;52.298;21.164;2023-10-19T06:49:21;2.80;99.90
18317;DHT22;9284;52.298;21.164;2023-10-19T06:52:03;2.90;1.00
18317;DHT22;9284;52.298;21.164;2023-10-19T06:54:49;3.10;99.90
18317;DHT22;9284;52.298;21.164;2023-10-19T06:57:47;3.30;1.00
18317;DHT22;9284;52.298;21.164;2023-10-19T07:01:25;3.40;1.00
18317;DHT22;9284;52.298;21.164;2023-10-19T07:04:34;3.60;99.90
18317;DHT22;9284;52.298;21.164;2023-10-19T07:07:44;3.60;1.00
18317;DHT22;9284;52.298;21.164;2023-10-19T07:10:45;3.70;1.00
18317;DHT22;9284;52.298;21.164;2023-10-19T07:13:14;3.80;1.00
18317;DHT22;9284;52.298;21.164;2023-10-19T07:15:51;4.00;99.90
18317;DHT22;9284;52.298;21.164;2023-10-19T07:18:36;4.30;13.60
18317;DHT22;9284;52.298;21.164;2023-10-19T07:21:08;4.40;99.90
18317;DHT22;9284;52.298;21.164;2023-10-19T07:23:52;4.60;99.90
18317;DHT22;9284;52.298;21.164;2023-10-19T07:26:45;4.80;1.00
18317;DHT22;9284;52.298;21.164;2023-10-19T07:29:33;5.00;99.90
18317;DHT22;9284;52.298;21.164;2023-10-19T07:32:14;5.00;99.90
18317;DHT22;9284;52.298;21.164;2023-10-19T07:35:35;5.10;99.90
18317;DHT22;9284;52.298;21.164;2023-10-19T07:38:38;5.30;99.90
18317;DHT22;9284;52.298;21.164;2023-10-19T07:41:49;5.40;99.90
18317;DHT22;9284;52.298;21.164;2023-10-19T07:45:20;5.60;99.90
18317;DHT22;9284;52.298;21.164;2023-10-19T07:48:39;5.60;15.40
18317;DHT22;9284;52.298;21.164;2023-10-19T07:51:31;5.70;1.00
18317;DHT22;9284;52.298;21.164;2023-10-19T07:54:21;5.90;1.00
18317;DHT22;9284;52.298;21.164;2023-10-19T07:57:42;6.00;1.00
18317;DHT22;9284;52.298;21.164;2023-10-19T08:00:48;6.20;1.00
18317;DHT22;9284;52.298;21.164;2023-10-19T08:03:45;6.20;1.00
18317;DHT22;9284;52.298;21.164;2023-10-19T08:06:34;6.40;1.00
18317;DHT22;9284;52.298;21.164;2023-10-19T08:09:38;6.40;1.00
18317;DHT22;9284;52.298;21.164;2023-10-19T08:12:47;6.70;99.90
18317;DHT22;9284;52.298;21.164;2023-10-19T08:16:02;6.90;86.40
18317;DHT22;9284;52.298;21.164;2023-10-19T08:18:25;7.00;1.00
18317;DHT22;9284;52.298;21.164;2023-10-19T08:21:41;7.10;1.00
18317;DHT22;9284;52.298;21.164;2023-10-19T08:24:29;7.30;1.00
18317;DHT22;9284;52.298;21.164;2023-10-19T08:30:59;7.60;1.00
18317;DHT22;9284;52.298;21.164;2023-10-19T08:33:47;7.70;1.00
18317;DHT22;9284;52.298;21.164;2023-10-19T08:36:18;7.90;1.00
18317;DHT22;9284;52.298;21.164;2023-10-19T08:39:16;8.10;1.00
18317;DHT22;9284;52.298;21.164;2023-10-19T08:42:10;8.10;99.90
18317;DHT22;9284;52.298;21.164;2023-10-19T08:44:59;8.30;99.90
18317;DHT22;9284;52.298;21.164;2023-10-19T08:47:48;8.30;99.90
18317;DHT22;9284;52.298;21.164;2023-10-19T08:50:33;8.40;99.90
18317;DHT22;9284;52.298;21.164;2023-10-19T08:53:17;8.40;99.90
18317;DHT22;9284;52.298;21.164;2023-10-19T08:55:52;8.50;99.90
18317;DHT22;9284;52.298;21.164;2023-10-19T08:58:43;8.70;99.90
18317;DHT22;9284;52.298;21.164;2023-10-19T09:01:22;8.80;99.90
18317;DHT22;9284;52.298;21.164;2023-10-19T09:04:01;8.90;86.30
18317;DHT22;9284;52.298;21.164;2023-10-19T09:06:55;9.00;18.80
18317;DHT22;9284;52.298;21.164;2023-10-19T09:09:34;9.10;1.00
18317;DHT22;9284;52.298;21.164;2023-10-19T09:12:19;9.20;1.00
18317;DHT22;9284;52.298;21.164;2023-10-19T09:14:52;9.40;1.00
18317;DHT22;9284;52.298;21.164;2023-10-19T09:17:29;9.40;1.00
18317;DHT22;9284;52.298;21.164;2023-10-19T09:20:01;9.60;1.00
18317;DHT22;9284;52.298;21.164;2023-10-19T09:22:40;9.70;1.00
18317;DHT22;9284;52.298;21.164;2023-10-19T09:25:34;9.70;99.90
18317;DHT22;9284;52.298;21.164;2023-10-19T09:28:56;9.80;99.90
18317;DHT22;9284;52.298;21.164;2023-10-19T09:31:36;9.90;99.90
18317;DHT22;9284;52.298;21.164;2023-10-19T09:34:35;10.10;99.90
18317;DHT22;9284;52.298;21.164;2023-10-19T09:38:49;10.20;99.90
18317;DHT22;9284;52.298;21.164;2023-10-19T09:41:56;10.40;99.90
18317;DHT22;9284;52.298;21.164;2023-10-19T09:45:12;10.20;99.90
18317;DHT22;9284;52.298;21.164;2023-10-19T09:48:02;10.20;99.90
18317;DHT22;9284;52.298;21.164;2023-10-19T09:50:50;10.30;99.90
18317;DHT22;9284;52.298;21.164;2023-10-19T09:53:47;10.50;99.90
18317;DHT22;9284;52.298;21.164;2023-10-19T09:56:33;10.50;99.90
18317;DHT22;9284;52.298;21.164;2023-10-19T09:59:23;10.60;99.90
18317;DHT22;9284;52.298;21.164;2023-10-19T10:02:24;10.80;99.90
18317;DHT22;9284;52.298;21.164;2023-10-19T10:05:50;11.00;99.90
18317;DHT22;9284;52.298;21.164;2023-10-19T10:12:18;11.00;99.90
18317;DHT22;9284;52.298;21.164;2023-10-19T10:15:09;11.00;99.90
18317;DHT22;9284;52.298;21.164;2023-10-19T10:18:15;11.10;99.90
18317;DHT22;9284;52.298;21.164;2023-10-19T10:21:20;11.00;99.90
18317;DHT22;9284;52.298;21.164;2023-10-19T10:27:56;10.90;99.90
18317;DHT22;9284;52.298;21.164;2023-10-19T10:31:12;10.90;99.90
18317;DHT22;9284;52.298;21.164;2023-10-19T10:34:03;10.90;99.90
18317;DHT22;9284;52.298;21.164;2023-10-19T10:40:28;10.80;99.90
18317;DHT22;9284;52.298;21.164;2023-10-19T10:43:47;10.80;99.90
18317;DHT22;9284;52.298;21.164;2023-10-19T10:46:48;10.80;99.90
18317;DHT22;9284;52.298;21.164;2023-10-19T10:50:09;10.80;99.90
18317;DHT22;9284;52.298;21.164;2023-10-19T10:53:12;10.80;99.90
18317;DHT22;9284;52.298;21.164;2023-10-19T10:56:09;10.80;99.90
18317;DHT22;9284;52.298;21.164;2023-10-19T10:58:47;10.90;99.90
18317;DHT22;9284;52.298;21.164;2023-10-19T11:01:34;11.00;99.90
18317;DHT22;9284;52.298;21.164;2023-10-19T11:04:26;11.00;99.90
18317;DHT22;9284;52.298;21.164;2023-10-19T11:07:22;11.00;99.90
18317;DHT22;9284;52.298;21.164;2023-10-19T11:10:06;11.00;99.90
18317;DHT22;9284;52.298;21.164;2023-10-19T11:15:51;10.90;99.90
18317;DHT22;9284;52.298;21.164;2023-10-19T11:18:36;11.00;99.90
18317;DHT22;9284;52.298;21.164;2023-10-19T11:21:18;11.10;99.90
18317;DHT22;9284;52.298;21.164;2023-10-19T11:23:53;11.00;99.90
18317;DHT22;9284;52.298;21.164;2023-10-19T11:26:44;11.00;99.90
18317;DHT22;9284;52.298;21.164;2023-10-19T11:29:30;11.10;99.90
18317;DHT22;9284;52.298;21.164;2023-10-19T11:32:13;11.30;99.90
18317;DHT22;9284;52.298;21.164;2023-10-19T11:34:53;11.40;99.90
18317;DHT22;9284;52.298;21.164;2023-10-19T11:37:32;11.50;99.90
18317;DHT22;9284;52.298;21.164;2023-10-19T11:40:35;11.70;99.90
18317;DHT22;9284;52.298;21.164;2023-10-19T11:43:45;11.60;99.90
18317;DHT22;9284;52.298;21.164;2023-10-19T11:46:40;11.60;99.90
18317;DHT22;9284;52.298;21.164;2023-10-19T11:49:20;11.50;99.90
18317;DHT22;9284;52.298;21.164;2023-10-19T11:52:15;11.40;99.90
18317;DHT22;9284;52.298;21.164;2023-10-19T11:55:28;11.30;99.90
18317;DHT22;9284;52.298;21.164;2023-10-19T11:58:15;11.30;99.90
18317;DHT22;9284;52.298;21.164;2023-10-19T12:01:00;11.20;99.90
18317;DHT22;9284;52.298;21.164;2023-10-19T12:03:36;11.10;99.90
18317;DHT22;9284;52.298;21.164;2023-10-19T12:06:39;11.10;99.90
18317;DHT22;9284;52.298;21.164;2023-10-19T12:09:43;11.00;99.90
18317;DHT22;9284;52.298;21.164;2023-10-19T12:14:26;11.00;99.90
18317;DHT22;9284;52.298;21.164;2023-10-19T12:15:40;10.90;99.90
18317;DHT22;9284;52.298;21.164;2023-10-19T12:18:25;11.00;99.90
18317;DHT22;9284;52.298;21.164;2023-10-19T12:21:57;11.10;99.90
18317;DHT22;9284;52.298;21.164;2023-10-19T12:25:52;11.10;99.90
18317;DHT22;9284;52.298;21.164;2023-10-19T12:28:50;11.30;99.90
18317;DHT22;9284;52.298;21.164;2023-10-19T12:31:56;11.30;99.90
18317;DHT22;9284;52.298;21.164;2023-10-19T12:34:26;11.40;99.90
18317;DHT22;9284;52.298;21.164;2023-10-19T12:37:46;11.50;99.90
18317;DHT22;9284;52.298;21.164;2023-10-19T12:44:08;11.50;99.90
18317;DHT22;9284;52.298;21.164;2023-10-19T12:47:07;11.40;99.90
18317;DHT22;9284;52.298;21.164;2023-10-19T12:50:10;11.30;99.90
18317;DHT22;9284;52.298;21.164;2023-10-19T12:53:13;11.20;99.90
18317;DHT22;9284;52.298;21.164;2023-10-19T12:56:14;11.30;99.90
18317;DHT22;9284;52.298;21.164;2023-10-19T12:59:01;11.20;99.90
18317;DHT22;9284;52.298;21.164;2023-10-19T13:04:21;11.10;99.90
18317;DHT22;9284;52.298;21.164;2023-10-19T13:05:41;11.00;99.90
18317;DHT22;9284;52.298;21.164;2023-10-19T13:08:42;10.90;99.90
18317;DHT22;9284;52.298;21.164;2023-10-19T13:11:26;10.80;99.90
18317;DHT22;9284;52.298;21.164;2023-10-19T13:14:25;10.80;99.90
18317;DHT22;9284;52.298;21.164;2023-10-19T13:17:14;10.70;99.90
18317;DHT22;9284;52.298;21.164;2023-10-19T13:19:57;10.60;99.90
18317;DHT22;9284;52.298;21.164;2023-10-19T13:23:06;10.60;99.90
18317;DHT22;9284;52.298;21.164;2023-10-19T13:26:22;10.50;99.90
18317;DHT22;9284;52.298;21.164;2023-10-19T13:29:13;10.40;99.90
18317;DHT22;9284;52.298;21.164;2023-10-19T13:32:01;10.30;99.90
18317;DHT22;9284;52.298;21.164;2023-10-19T13:34:59;10.30;99.90
18317;DHT22;9284;52.298;21.164;2023-10-19T13:37:51;10.30;99.90
18317;DHT22;9284;52.298;21.164;2023-10-19T13:41:03;10.30;99.90
18317;DHT22;9284;52.298;21.164;2023-10-19T13:44:08;10.20;99.90
18317;DHT22;9284;52.298;21.164;2023-10-19T13:46:48;10.00;99.90
18317;DHT22;9284;52.298;21.164;2023-10-19T13:49:38;10.10;99.90
18317;DHT22;9284;52.298;21.164;2023-10-19T13:52:53;10.10;99.90
18317;DHT22;9284;52.298;21.164;2023-10-19T13:55:30;10.00;99.90
18317;DHT22;9284;52.298;21.164;2023-10-19T13:58:11;10.00;99.90
18317;DHT22;9284;52.298;21.164;2023-10-19T14:01:37;10.00;99.90
18317;DHT22;9284;52.298;21.164;2023-10-19T14:04:09;10.00;99.90
18317;DHT22;9284;52.298;21.164;2023-10-19T14:06:48;10.00;99.90
18317;DHT22;9284;52.298;21.164;2023-10-19T14:09:57;10.00;99.90
18317;DHT22;9284;52.298;21.164;2023-10-19T14:13:08;10.00;99.90
18317;DHT22;9284;52.298;21.164;2023-10-19T14:16:09;10.00;99.90
18317;DHT22;9284;52.298;21.164;2023-10-19T14:18:40;9.90;99.90
18317;DHT22;9284;52.298;21.164;2023-10-19T14:21:45;9.90;99.90
18317;DHT22;9284;52.298;21.164;2023-10-19T14:24:42;9.90;99.90
18317;DHT22;9284;52.298;21.164;2023-10-19T14:27:41;9.90;99.90
18317;DHT22;9284;52.298;21.164;2023-10-19T14:30:28;9.90;99.90
18317;DHT22;9284;52.298;21.164;2023-10-19T14:37:22;9.80;99.90
18317;DHT22;9284;52.298;21.164;2023-10-19T14:40:35;9.80;99.90
18317;DHT22;9284;52.298;21.164;2023-10-19T14:43:57;9.80;99.90
18317;DHT22;9284;52.298;21.164;2023-10-19T14:46:40;9.80;99.90
18317;DHT22;9284;52.298;21.164;2023-10-19T14:49:37;9.70;99.90
18317;DHT22;9284;52.298;21.164;2023-10-19T14:52:31;9.70;99.90
18317;DHT22;9284;52.298;21.164;2023-10-19T14:55:21;9.60;99.90
18317;DHT22;9284;52.298;21.164;2023-10-19T14:58:13;9.60;99.90
18317;DHT22;9284;52.298;21.164;2023-10-19T15:00:55;9.60;99.90
18317;DHT22;9284;52.298;21.164;2023-10-19T15:03:56;9.50;99.90
18317;DHT22;9284;52.298;21.164;2023-10-19T15:06:50;9.50;99.90
18317;DHT22;9284;52.298;21.164;2023-10-19T15:09:25;9.40;1.00
18317;DHT22;9284;52.298;21.164;2023-10-19T15:12:04;9.40;1.00
18317;DHT22;9284;52.298;21.164;2023-10-19T15:15:12;9.30;1.00
18317;DHT22;9284;52.298;21.164;2023-10-19T15:18:02;9.30;1.00
18317;DHT22;9284;52.298;21.164;2023-10-19T15:20:40;9.30;1.00
18317;DHT22;9284;52.298;21.164;2023-10-19T15:23:47;9.30;1.00
18317;DHT22;9284;52.298;21.164;2023-10-19T15:26:30;9.30;1.00
18317;DHT22;9284;52.298;21.164;2023-10-19T15:29:08;9.20;1.00
18317;DHT22;9284;52.298;21.164;2023-10-19T15:31:45;9.20;1.00
18317;DHT22;9284;52.298;21.164;2023-10-19T15:34:46;9.20;1.00
18317;DHT22;9284;52.298;21.164;2023-10-19T15:37:22;9.20;1.00
18317;DHT22;9284;52.298;21.164;2023-10-19T15:40:28;9.20;1.00
18317;DHT22;9284;52.298;21.164;2023-10-19T15:43:29;9.20;1.00
18317;DHT22;9284;52.298;21.164;2023-10-19T15:46:07;9.10;1.00
18317;DHT22;9284;52.298;21.164;2023-10-19T15:49:11;9.10;1.00
18317;DHT22;9284;52.298;21.164;2023-10-19T15:52:20;9.10;1.00
18317;DHT22;9284;52.298;21.164;2023-10-19T15:55:09;9.00;1.00
18317;DHT22;9284;52.298;21.164;2023-10-19T15:58:25;9.00;1.00
18317;DHT22;9284;52.298;21.164;2023-10-19T16:01:00;9.00;1.00
18317;DHT22;9284;52.298;21.164;2023-10-19T16:03:41;9.00;1.00
18317;DHT22;9284;52.298;21.164;2023-10-19T16:06:27;8.90;1.00
18317;DHT22;9284;52.298;21.164;2023-10-19T16:08:58;8.90;1.00
18317;DHT22;9284;52.298;21.164;2023-10-19T16:11:34;8.90;1.00
18317;DHT22;9284;52.298;21.164;2023-10-19T16:14:17;8.90;1.00
18317;DHT22;9284;52.298;21.164;2023-10-19T16:16:57;8.90;1.00
18317;DHT22;9284;52.298;21.164;2023-10-19T16:20:02;8.90;1.00
18317;DHT22;9284;52.298;21.164;2023-10-19T16:22:52;8.80;1.00
18317;DHT22;9284;52.298;21.164;2023-10-19T16:25:30;8.80;1.00
18317;DHT22;9284;52.298;21.164;2023-10-19T16:28:13;8.80;1.00
18317;DHT22;9284;52.298;21.164;2023-10-19T16:30:51;8.80;1.00
18317;DHT22;9284;52.298;21.164;2023-10-19T16:33:35;8.90;1.00
18317;DHT22;9284;52.298;21.164;2023-10-19T16:36:13;8.80;1.00
18317;DHT22;9284;52.298;21.164;2023-10-19T16:39:00;8.80;1.00
18317;DHT22;9284;52.298;21.164;2023-10-19T16:41:39;8.80;1.00
18317;DHT22;9284;52.298;21.164;2023-10-19T16:45:08;8.70;1.00
18317;DHT22;9284;52.298;21.164;2023-10-19T16:48:05;8.80;1.00
18317;DHT22;9284;52.298;21.164;2023-10-19T16:51:27;8.70;1.00
18317;DHT22;9284;52.298;21.164;2023-10-19T16:54:02;8.70;1.00
18317;DHT22;9284;52.298;21.164;2023-10-19T16:56:35;8.70;1.00
18317;DHT22;9284;52.298;21.164;2023-10-19T16:59:07;8.70;1.00
18317;DHT22;9284;52.298;21.164;2023-10-19T17:01:44;8.70;1.00
18317;DHT22;9284;52.298;21.164;2023-10-19T17:04:14;8.70;1.00
18317;DHT22;9284;52.298;21.164;2023-10-19T17:06:44;8.70;1.00
18317;DHT22;9284;52.298;21.164;2023-10-19T17:09:17;8.60;1.00
18317;DHT22;9284;52.298;21.164;2023-10-19T17:11:56;8.60;1.00
18317;DHT22;9284;52.298;21.164;2023-10-19T17:14:36;8.60;1.00
18317;DHT22;9284;52.298;21.164;2023-10-19T17:17:14;8.60;1.00
18317;DHT22;9284;52.298;21.164;2023-10-19T17:20:15;8.70;1.00
18317;DHT22;9284;52.298;21.164;2023-10-19T17:23:08;8.60;1.00
18317;DHT22;9284;52.298;21.164;2023-10-19T17:25:42;8.60;1.00
18317;DHT22;9284;52.298;21.164;2023-10-19T17:28:19;8.60;1.00
18317;DHT22;9284;52.298;21.164;2023-10-19T17:31:17;8.60;1.00
18317;DHT22;9284;52.298;21.164;2023-10-19T17:34:00;8.60;1.00
18317;DHT22;9284;52.298;21.164;2023-10-19T17:40:38;8.60;1.00
18317;DHT22;9284;52.298;21.164;2023-10-19T17:43:07;8.50;6.50
18317;DHT22;9284;52.298;21.164;2023-10-19T17:45:51;8.50;1.00
18317;DHT22;9284;52.298;21.164;2023-10-19T17:48:46;8.60;1.00
18317;DHT22;9284;52.298;21.164;2023-10-19T17:51:31;8.60;1.00
18317;DHT22;9284;52.298;21.164;2023-10-19T17:54:11;8.60;1.00
18317;DHT22;9284;52.298;21.164;2023-10-19T17:56:55;8.50;1.00
18317;DHT22;9284;52.298;21.164;2023-10-19T17:59:24;8.50;1.00
18317;DHT22;9284;52.298;21.164;2023-10-19T18:05:43;8.50;1.00
18317;DHT22;9284;52.298;21.164;2023-10-19T18:11:01;8.60;1.00
18317;DHT22;9284;52.298;21.164;2023-10-19T18:12:53;8.50;6.70
18317;DHT22;9284;52.298;21.164;2023-10-19T18:18:13;8.50;22.30
18317;DHT22;9284;52.298;21.164;2023-10-19T18:23:37;8.50;27.50